Newton, KS

3:26 PM CDT on April 24, 2017 (GMT -0500)
Newton, KS | | Change Station
Active Advisory: Wind Advisory

Elev 1443 ft 37.98 °N, 97.31 °W | Updated 4 minutes ago

Clear
Clear
68.6 °F
Feels Like 68.6 °F
N
16.2
Wind Variable Wind from SW
Gusts 23.6 mph

Today
High -- | Low -- °F
--% Chance of Precip.
Yesterday
High -- | Low -- °F
Precip. -- in
Pressure 29.58 in
Visibility 10.0 miles
Clouds Clear
Dew Point 45 °F
Humidity 33%
Rainfall 0.00 in
Snow Depth Not available.
6:41 AM 8:14 PM
Waning Crescent, 4% visible
METAR KEWK 241956Z AUTO 19027G33KT 10SM CLR 22/09 A2960 RMK AO2 PK WND 18037/1919 SLP016 T02170094
Pressure 29.58 in
Visibility 10.0 miles
Clouds Clear
Dew Point 45 °F
Humidity 33%
Rainfall 0.00 in
Snow Depth Not available.
6:41 AM 8:14 PM
Waning Crescent, 4% visible
METAR KEWK 241956Z AUTO 19027G33KT 10SM CLR 22/09 A2960 RMK AO2 PK WND 18037/1919 SLP016 T02170094

Get Your Daily Forecast Email!

Thanks for signing up!

Be on the lookout for a verification email in your inbox.

You'll start receiving severe weather alerts in your inbox..

×

10-Day Weather Forecast

Almanac

Astronomy

Apr. 24, 2017 Rise Set
Actual Time
Civil Twilight
Nautical Twilight
Astronomical Twilight
Moon
Length of Visible Light
Length of Day
Tomorrow will be .
, % of the Moon is Illuminated

Today's Extremes

State Highs State Lows

Community

WunderPhotos

WunderBlog® & News

Nearby

Air Quality

  Air Quality AQ Index Pollutant
Not available.

Snow Depth

Station Depth Elevation

Earthquake Activity

City Distance Mag. Time & Date
Minimum magnitude displayed is 2.5.

Coastal Water Temperatures

Place Temperature

Stations

Nearby Weather Stations

Station Location Temp. Windchill Dew Point Humidity Wind Precip. Elev Updated Type
                   

Watches & Warnings

Wind Advisory
Issued: 2:54 PM CDT Apr. 24, 2017 – National Weather Service

... Wind Advisory remains in effect until 5 PM CDT this
afternoon...

* winds... south 25 to 35 mph with gusts up to 40 mph.

* Timing... of the strongest winds will be from midday until the
late afternoon.

* Impacts... include sudden strong gusts and cross-winds,
especially on east-west oriented roads and highways could make
driving difficult.

Precautionary/preparedness actions...

A Wind Advisory means that sustained winds of at least 30 mph
and/or wind gusts over 45 mph are expected. Winds this strong
can make driving difficult... especially for high profile
vehicles. Use extra caution.